createdAt,value
2023-02-19T00:59:20.444Z,100665.00
2023-02-19T01:04:23.784Z,100676.00
2023-02-19T01:09:26.365Z,100672.00
2023-02-19T01:14:30.409Z,100654.00
2023-02-19T01:19:32.870Z,100655.00
2023-02-19T01:24:35.784Z,100655.00
2023-02-19T01:29:40.196Z,100665.00
2023-02-19T01:34:42.737Z,100657.00
2023-02-19T01:39:45.081Z,100655.00
2023-02-19T01:45:27.412Z,100661.00
2023-02-19T01:50:35.123Z,100637.00
2023-02-19T01:55:39.013Z,100643.00
2023-02-19T02:00:43.305Z,100649.00
2023-02-19T02:05:56.163Z,100647.00
2023-02-19T02:10:58.844Z,100643.00
2023-02-19T02:16:22.416Z,100648.00
2023-02-19T02:21:49.522Z,100650.00
2023-02-19T02:27:16.220Z,100664.00
2023-02-19T02:32:26.933Z,100653.00
2023-02-19T02:37:35.321Z,100650.00
2023-02-19T02:42:40.424Z,100634.00
2023-02-19T02:47:53.413Z,100640.00
2023-02-19T02:53:01.624Z,100627.00
2023-02-19T02:58:06.018Z,100615.00
2023-02-19T03:03:10.086Z,100613.00
2023-02-19T03:08:18.172Z,100611.00
2023-02-19T03:13:28.634Z,100597.00
2023-02-19T03:18:37.669Z,100604.00
2023-02-19T03:23:41.359Z,100611.00
2023-02-19T03:28:46.968Z,100599.00
2023-02-19T03:33:56.055Z,100599.00
2023-02-19T03:39:03.388Z,100591.00
2023-02-19T03:44:16.459Z,100589.00
2023-02-19T03:49:29.977Z,100592.00
2023-02-19T03:54:40.653Z,100594.00
2023-02-19T03:59:50.638Z,100596.00
2023-02-19T04:05:05.518Z,100580.00
2023-02-19T04:10:09.742Z,100587.00
2023-02-19T04:15:26.450Z,100594.00
2023-02-19T04:20:35.755Z,100600.00
2023-02-19T04:25:43.948Z,100591.00
2023-02-19T04:30:46.421Z,100599.00
2023-02-19T04:35:50.080Z,100616.00
2023-02-19T04:40:52.326Z,100605.00
2023-02-19T04:45:54.681Z,100606.00
2023-02-19T04:50:58.470Z,100596.00
2023-02-19T04:56:07.682Z,100605.00
2023-02-19T05:01:11.455Z,100616.00
2023-02-19T05:06:15.519Z,100612.00
2023-02-19T05:11:17.997Z,100615.00
2023-02-19T05:16:20.173Z,100610.00
2023-02-19T05:21:23.874Z,100620.00
2023-02-19T05:26:26.000Z,100620.00
2023-02-19T05:31:28.901Z,100620.00
2023-02-19T05:36:33.258Z,100618.00
2023-02-19T05:41:35.532Z,100615.00
2023-02-19T05:46:37.958Z,100632.00
2023-02-19T05:51:41.508Z,100635.00
2023-02-19T05:56:43.680Z,100633.00
2023-02-19T06:01:46.773Z,100630.00
2023-02-19T06:06:50.481Z,100643.00
2023-02-19T06:11:52.738Z,100643.00
2023-02-19T06:16:54.946Z,100654.00
2023-02-19T06:21:58.514Z,100656.00
2023-02-19T06:27:00.806Z,100668.00
2023-02-19T06:32:03.088Z,100672.00
2023-02-19T06:37:06.889Z,100668.00
2023-02-19T06:42:09.244Z,100662.00
2023-02-19T06:47:11.599Z,100667.00
2023-02-19T06:52:15.195Z,100675.00
2023-02-19T06:57:17.449Z,100669.00
2023-02-19T07:02:19.756Z,100681.00
2023-02-19T07:07:23.369Z,100678.00
2023-02-19T07:12:25.652Z,100692.00
2023-02-19T07:17:27.956Z,100687.00
2023-02-19T07:22:31.688Z,100708.00
2023-02-19T07:27:34.035Z,100711.00
2023-02-19T07:32:36.360Z,100708.00
2023-02-19T07:37:41.338Z,100709.00
2023-02-19T07:42:43.658Z,100708.00
2023-02-19T07:47:45.957Z,100717.00
2023-02-19T07:52:49.632Z,100718.00
2023-02-19T07:57:51.963Z,100715.00
2023-02-19T08:02:54.326Z,100715.00
2023-02-19T08:07:58.630Z,100720.00
2023-02-19T08:13:02.122Z,100723.00
2023-02-19T08:18:04.606Z,100732.00
2023-02-19T08:23:08.804Z,100731.00
2023-02-19T08:28:12.761Z,100737.00
2023-02-19T08:33:18.156Z,100743.00
2023-02-19T08:38:22.082Z,100750.00
2023-02-19T08:43:24.534Z,100756.00
2023-02-19T08:48:27.434Z,100767.00
2023-02-19T08:53:32.596Z,100761.00
2023-02-19T08:58:34.939Z,100761.00
2023-02-19T09:03:37.413Z,100765.00
2023-02-19T09:08:41.508Z,100769.00
2023-02-19T09:13:44.402Z,100780.00
2023-02-19T09:18:46.807Z,100796.00
2023-02-19T09:23:50.625Z,100791.00
2023-02-19T09:28:53.100Z,100802.00
2023-02-19T09:33:55.436Z,100788.00
2023-02-19T09:38:59.108Z,100799.00
2023-02-19T09:44:04.673Z,100802.00
2023-02-19T09:49:14.727Z,100813.00
2023-02-19T09:54:24.826Z,100797.00
2023-02-19T09:59:32.821Z,100807.00
2023-02-19T10:04:35.410Z,100820.00
2023-02-19T10:09:39.417Z,100823.00
2023-02-19T10:14:49.896Z,100822.00
2023-02-19T10:19:53.758Z,100826.00
2023-02-19T10:24:58.559Z,100831.00
2023-02-19T10:30:01.742Z,100827.00
2023-02-19T10:35:11.018Z,100837.00
2023-02-19T10:40:19.718Z,100853.00
2023-02-19T10:45:27.387Z,100849.00
2023-02-19T10:50:35.562Z,100857.00
2023-02-19T10:55:39.627Z,100863.00
2023-02-19T11:00:41.908Z,100863.00
2023-02-19T11:05:57.403Z,100854.00
2023-02-19T11:11:01.079Z,100857.00
2023-02-19T11:16:05.120Z,100866.00
2023-02-19T11:21:22.508Z,100883.00
2023-02-19T11:26:31.215Z,100871.00
2023-02-19T11:31:34.489Z,100872.00
2023-02-19T11:36:38.083Z,100874.00
2023-02-19T11:42:11.578Z,100892.00
2023-02-19T11:47:55.739Z,100889.00
2023-02-19T11:53:17.059Z,100899.00
2023-02-19T11:59:01.551Z,100910.00
2023-02-19T12:04:39.845Z,100907.00
2023-02-19T12:10:02.418Z,100907.00
2023-02-19T12:15:46.760Z,100907.00
2023-02-19T12:21:06.980Z,100917.00
2023-02-19T12:26:22.035Z,100922.00
2023-02-19T12:32:09.243Z,100926.00
2023-02-19T12:37:29.504Z,100925.00
2023-02-19T12:42:54.152Z,100926.00
2023-02-19T12:48:06.424Z,100951.00
2023-02-19T12:53:20.494Z,100945.00
2023-02-19T12:58:35.494Z,100947.00
2023-02-19T13:03:48.964Z,100954.00
2023-02-19T13:09:07.293Z,100963.00
2023-02-19T13:14:23.295Z,100967.00
2023-02-19T13:19:27.244Z,100965.00
2023-02-19T13:24:36.234Z,100977.00
2023-02-19T13:30:02.446Z,100968.00
2023-02-19T13:35:26.322Z,100979.00
2023-02-19T13:40:34.097Z,100988.00
2023-02-19T13:45:43.322Z,100990.00
2023-02-19T13:50:47.682Z,100977.00
2023-02-19T13:55:52.592Z,100991.00
2023-02-19T14:00:55.554Z,101001.00
2023-02-19T14:06:03.976Z,101001.00
2023-02-19T14:11:07.305Z,101007.00
2023-02-19T14:16:31.145Z,101013.00
2023-02-19T14:21:40.683Z,101034.00
2023-02-19T14:26:46.168Z,101033.00
2023-02-19T14:31:49.356Z,101035.00
2023-02-19T14:36:56.300Z,101057.00
2023-02-19T14:42:02.640Z,101054.00
2023-02-19T14:47:07.717Z,101054.00
2023-02-19T14:52:20.424Z,101074.00
2023-02-19T14:57:30.328Z,101078.00
2023-02-19T15:02:41.561Z,101078.00
2023-02-19T15:07:46.341Z,101079.00
2023-02-19T15:12:54.750Z,101083.00
2023-02-19T15:18:00.349Z,101100.00
2023-02-19T15:23:08.298Z,101119.00
2023-02-19T15:28:29.600Z,101120.00
2023-02-19T15:33:32.943Z,101127.00
2023-02-19T15:38:37.203Z,101131.00
2023-02-19T15:43:46.852Z,101150.00
2023-02-19T15:48:56.332Z,101153.00
2023-02-19T15:54:09.548Z,101164.00
2023-02-19T15:59:24.484Z,101170.00
2023-02-19T16:04:28.807Z,101173.00
2023-02-19T16:09:38.369Z,101188.00
2023-02-19T16:14:40.759Z,101200.00
2023-02-19T16:19:50.533Z,101204.00
2023-02-19T16:24:57.357Z,101209.00
2023-02-19T16:30:07.430Z,101208.00
2023-02-19T16:35:42.069Z,101219.00
2023-02-19T16:41:12.418Z,101241.00
2023-02-19T16:46:15.105Z,101263.00
2023-02-19T16:51:25.291Z,101275.00
2023-02-19T16:56:29.481Z,101266.00
2023-02-19T17:01:32.480Z,101283.00
2023-02-19T17:06:35.668Z,101292.00
2023-02-19T17:11:39.595Z,101302.00
2023-02-19T17:16:41.898Z,101302.00
2023-02-19T17:21:45.988Z,101308.00
2023-02-19T17:26:49.682Z,101299.00
2023-02-19T17:31:52.249Z,101302.00
2023-02-19T17:36:54.622Z,101306.00
2023-02-19T17:41:58.381Z,101310.00
2023-02-19T17:47:01.574Z,101302.00
2023-02-19T17:52:04.198Z,101306.00
2023-02-19T17:57:07.836Z,101315.00
2023-02-19T18:02:10.022Z,101310.00
2023-02-19T18:07:12.371Z,101314.00
2023-02-19T18:12:16.128Z,101320.00
2023-02-19T18:17:18.371Z,101321.00
2023-02-19T18:22:21.112Z,101321.00
2023-02-19T18:27:25.018Z,101324.00
2023-02-19T18:32:27.634Z,101339.00
2023-02-19T18:37:30.943Z,101349.00
2023-02-19T18:42:34.957Z,101355.00
2023-02-19T18:47:37.149Z,101376.00
2023-02-19T18:52:39.415Z,101356.00
2023-02-19T18:57:43.256Z,101369.00
2023-02-19T19:02:49.755Z,101358.00
2023-02-19T19:07:54.103Z,101349.00
2023-02-19T19:12:58.001Z,101338.00
2023-02-19T19:18:00.327Z,101340.00
2023-02-19T19:23:02.692Z,101331.00
2023-02-19T19:28:06.499Z,101324.00
2023-02-19T19:33:09.522Z,101324.00
2023-02-19T19:38:12.025Z,101325.00
2023-02-19T19:43:15.857Z,101338.00
2023-02-19T19:48:19.525Z,101334.00
2023-02-19T19:53:21.956Z,101320.00
2023-02-19T19:58:25.742Z,101320.00
2023-02-19T20:03:28.267Z,101320.00
2023-02-19T20:08:31.141Z,101332.00
2023-02-19T20:13:35.779Z,101328.00
2023-02-19T20:18:38.332Z,101324.00
2023-02-19T20:23:40.856Z,101325.00
2023-02-19T20:28:44.517Z,101332.00
2023-02-19T20:33:47.777Z,101340.00
2023-02-19T20:38:50.319Z,101338.00
2023-02-19T20:43:53.911Z,101335.00
2023-02-19T20:48:56.537Z,101338.00
2023-02-19T20:53:59.024Z,101337.00
2023-02-19T20:59:02.791Z,101330.00
2023-02-19T21:04:05.622Z,101338.00
2023-02-19T21:09:08.293Z,101339.00
2023-02-19T21:14:12.313Z,101340.00
2023-02-19T21:19:14.620Z,101348.00
2023-02-19T21:24:17.165Z,101338.00
2023-02-19T21:29:22.520Z,101345.00
2023-02-19T21:34:27.913Z,101331.00
2023-02-19T21:39:30.496Z,101334.00
2023-02-19T21:44:34.343Z,101349.00
2023-02-19T21:49:36.680Z,101340.00
2023-02-19T21:54:39.032Z,101359.00
2023-02-19T21:59:42.836Z,101358.00
2023-02-19T22:04:45.453Z,101368.00
2023-02-19T22:09:49.746Z,101363.00
2023-02-19T22:14:53.557Z,101368.00
2023-02-19T22:19:55.903Z,101369.00
2023-02-19T22:24:58.261Z,101356.00
2023-02-19T22:30:01.995Z,101366.00
2023-02-19T22:35:04.770Z,101360.00
2023-02-19T22:40:08.367Z,101358.00
2023-02-19T22:45:13.312Z,101362.00
2023-02-19T22:50:23.323Z,101364.00
2023-02-19T22:55:25.610Z,101360.00
2023-02-19T23:00:29.286Z,101363.00
2023-02-19T23:05:31.587Z,101359.00
2023-02-19T23:10:34.014Z,101349.00
2023-02-19T23:15:37.801Z,101364.00
2023-02-19T23:20:40.272Z,101338.00
2023-02-19T23:25:42.776Z,101346.00
2023-02-19T23:30:46.831Z,101340.00
2023-02-19T23:35:49.289Z,101339.00
2023-02-19T23:40:51.638Z,101357.00
2023-02-19T23:45:55.336Z,101351.00
2023-02-19T23:50:57.822Z,101340.00
2023-02-19T23:56:00.339Z,101342.00
